Time;durP1;ratioP1;P1;durP2;ratioP2;P2;SDS_P1;SDS_P2;PMS_P1;PMS_P2;Temp;Humidity;BMP_temperature;BMP_pressure;BME280_temperature;BME280_humidity;BME280_pressure;Samples;Min_cycle;Max_cycle;Signal;HPM_P1;HPM_P2
2022/02/07 00:02:23;;;;;;;;;3.00;1.75;;;;;;;;5070661;28;44694;-70
2022/02/07 00:04:49;;;;;;;;;1.00;0.00;;;;;;;;5072626;28;28518;-71
2022/02/07 00:07:17;;;;;;;;;1.00;1.00;;;;;;;;5073024;28;29142;-71
2022/02/07 00:09:43;;;;;;;;;2.50;0.00;;;;;;;;5072235;28;28507;-71
2022/02/07 00:12:08;;;;;;;;;2.00;1.00;;;;;;;;5072296;28;28375;-71
2022/02/07 00:14:33;;;;;;;;;1.00;1.00;;;;;;;;5072870;28;28493;-71
2022/02/07 00:16:59;;;;;;;;;1.00;0.00;;;;;;;;5072750;28;28355;-71
2022/02/07 00:19:27;;;;;;;;;2.00;0.75;;;;;;;;5072612;27;30170;-71
2022/02/07 00:21:52;;;;;;;;;2.50;1.00;;;;;;;;5071960;28;33890;-71
2022/02/07 00:24:17;;;;;;;;;2.00;1.00;;;;;;;;5072510;28;28323;-71
2022/02/07 00:26:42;;;;;;;;;2.00;1.00;;;;;;;;5053551;28;29279;-71
2022/02/07 00:29:08;;;;;;;;;1.00;1.00;;;;;;;;5072765;28;28389;-71
2022/02/07 00:31:36;;;;;;;;;0.25;0.25;;;;;;;;5072980;28;28506;-70
2022/02/07 00:34:01;;;;;;;;;4.75;0.50;;;;;;;;5072630;28;28489;-71
2022/02/07 00:36:26;;;;;;;;;1.00;1.00;;;;;;;;5071797;28;28451;-71
2022/02/07 00:38:58;;;;;;;;;1.00;1.00;;;;;;;;5072532;28;28550;-71
2022/02/07 00:41:33;;;;;;;;;0.50;0.50;;;;;;;;5072735;28;28570;-71
2022/02/07 00:44:09;;;;;;;;;2.25;1.00;;;;;;;;5072502;28;28521;-71
2022/02/07 00:46:39;;;;;;;;;1.75;0.00;;;;;;;;5071860;28;31770;-71
2022/02/07 00:49:04;;;;;;;;;2.00;2.00;;;;;;;;5069857;27;43124;-70
2022/02/07 00:51:29;;;;;;;;;1.50;0.75;;;;;;;;5069305;28;43061;-70
2022/02/07 00:53:54;;;;;;;;;1.00;1.00;;;;;;;;5069017;28;44616;-70
2022/02/07 00:56:20;;;;;;;;;0.50;0.00;;;;;;;;5069477;28;46576;-71
2022/02/07 00:58:45;;;;;;;;;1.00;1.00;;;;;;;;5069960;28;44801;-70
2022/02/07 01:01:10;;;;;;;;;1.25;1.25;;;;;;;;5065194;27;45305;-71
2022/02/07 01:03:35;;;;;;;;;6.50;2.25;;;;;;;;5059087;28;45118;-71
2022/02/07 01:06:01;;;;;;;;;1.75;0.00;;;;;;;;5065010;28;45725;-70
2022/02/07 01:08:41;;;;;;;;;4.50;0.75;;;;;;;;5069397;28;42290;-70
2022/02/07 01:11:15;;;;;;;;;0.50;0.50;;;;;;;;5071737;28;39739;-70
2022/02/07 01:16:16;;;;;;;;;3.00;1.00;;;;;;;;5071448;28;36016;-70
2022/02/07 01:46:32;;;;;;;;;0.50;0.50;;;;;;;;5068505;28;35012;-70
2022/02/07 01:56:29;;;;;;;;;1.00;0.75;;;;;;;;5059357;28;45372;-71
2022/02/07 01:58:54;;;;;;;;;2.75;1.50;;;;;;;;5055474;28;45589;-71
2022/02/07 02:01:20;;;;;;;;;1.00;1.00;;;;;;;;5055417;27;45477;-71
2022/02/07 02:03:45;;;;;;;;;2.50;1.00;;;;;;;;5055134;28;45463;-72
2022/02/07 02:06:11;;;;;;;;;4.25;2.25;;;;;;;;5056079;28;45506;-71
2022/02/07 02:08:38;;;;;;;;;1.75;1.00;;;;;;;;5055393;28;45928;-70
2022/02/07 02:11:03;;;;;;;;;6.75;1.00;;;;;;;;5055427;28;45422;-71
2022/02/07 02:33:57;;;;;;;;;1.00;1.00;;;;;;;;4993223;28;45405;-71
2022/02/07 02:38:29;;;;;;;;;1.75;0.75;;;;;;;;4996280;28;45377;-71
2022/02/07 02:46:25;;;;;;;;;1.50;0.25;;;;;;;;4996530;28;45278;-70
2022/02/07 02:48:51;;;;;;;;;3.50;0.75;;;;;;;;4995759;28;45533;-70
2022/02/07 02:51:16;;;;;;;;;2.25;1.25;;;;;;;;4997543;28;46831;-72
2022/02/07 02:53:42;;;;;;;;;1.00;1.00;;;;;;;;4996170;28;45445;-69
2022/02/07 02:56:07;;;;;;;;;0.25;0.25;;;;;;;;4996503;28;45301;-69
2022/02/07 02:58:32;;;;;;;;;0.25;0.00;;;;;;;;5017972;28;45271;-69
2022/02/07 03:00:57;;;;;;;;;2.00;1.00;;;;;;;;5058556;27;46171;-71
2022/02/07 03:03:23;;;;;;;;;1.00;1.00;;;;;;;;5057757;28;45339;-71
2022/02/07 03:05:49;;;;;;;;;1.00;1.00;;;;;;;;5058322;28;45410;-70
2022/02/07 03:08:15;;;;;;;;;0.75;0.75;;;;;;;;5058267;28;45565;-71
2022/02/07 03:13:34;;;;;;;;;1.00;0.75;;;;;;;;5057896;28;45408;-71
2022/02/07 03:18:43;;;;;;;;;0.00;0.00;;;;;;;;5053553;28;45225;-69
2022/02/07 03:21:08;;;;;;;;;2.75;0.50;;;;;;;;5057927;28;46419;-70
2022/02/07 03:23:34;;;;;;;;;1.25;0.75;;;;;;;;5058305;28;45494;-71
2022/02/07 03:25:59;;;;;;;;;2.25;1.25;;;;;;;;5058108;28;45529;-70
2022/02/07 03:28:26;;;;;;;;;2.00;0.25;;;;;;;;5057390;28;45309;-71
2022/02/07 03:30:51;;;;;;;;;0.00;0.00;;;;;;;;5057275;28;45794;-71
2022/02/07 03:33:16;;;;;;;;;2.75;2.75;;;;;;;;5057768;28;45422;-71
2022/02/07 03:35:42;;;;;;;;;2.25;1.75;;;;;;;;5057891;28;45565;-71
2022/02/07 03:38:07;;;;;;;;;1.50;1.00;;;;;;;;5057969;28;45341;-71
2022/02/07 03:40:32;;;;;;;;;3.25;0.50;;;;;;;;5039833;28;46504;-71
2022/02/07 03:42:58;;;;;;;;;3.75;2.00;;;;;;;;5057578;27;45468;-71
2022/02/07 03:45:23;;;;;;;;;2.00;1.00;;;;;;;;5038153;28;45501;-70
2022/02/07 03:47:49;;;;;;;;;2.00;1.00;;;;;;;;5057325;28;46004;-70
2022/02/07 03:50:14;;;;;;;;;4.75;1.50;;;;;;;;5057261;28;46202;-70
2022/02/07 03:52:39;;;;;;;;;1.00;1.00;;;;;;;;5057800;28;45435;-71
2022/02/07 03:55:05;;;;;;;;;0.00;0.00;;;;;;;;5057832;27;45450;-71
2022/02/07 03:57:31;;;;;;;;;2.00;1.25;;;;;;;;5056362;28;45343;-70
2022/02/07 03:59:56;;;;;;;;;4.00;3.00;;;;;;;;5038825;28;47222;-71
2022/02/07 04:02:21;;;;;;;;;1.75;1.00;;;;;;;;5057104;28;45406;-71
2022/02/07 04:04:54;;;;;;;;;3.00;0.50;;;;;;;;5057743;28;45488;-70
2022/02/07 04:07:19;;;;;;;;;1.25;1.00;;;;;;;;5057643;28;45323;-70
2022/02/07 04:09:49;;;;;;;;;0.00;0.00;;;;;;;;5056757;28;46777;-70
2022/02/07 04:12:19;;;;;;;;;2.00;1.75;;;;;;;;5057219;28;45342;-71
2022/02/07 04:14:45;;;;;;;;;1.75;1.75;;;;;;;;5058335;28;45514;-71
2022/02/07 04:17:14;;;;;;;;;1.00;0.00;;;;;;;;5059503;28;45407;-70
2022/02/07 04:19:40;;;;;;;;;2.00;0.75;;;;;;;;5059791;28;47028;-71
2022/02/07 04:22:07;;;;;;;;;1.00;1.00;;;;;;;;5056879;28;45391;-71
2022/02/07 04:24:32;;;;;;;;;5.00;2.00;;;;;;;;5055728;28;45324;-70
2022/02/07 04:26:58;;;;;;;;;4.00;1.00;;;;;;;;5056363;28;45450;-71
2022/02/07 04:29:23;;;;;;;;;4.00;2.50;;;;;;;;5056251;28;45414;-70
2022/02/07 04:31:48;;;;;;;;;4.50;2.00;;;;;;;;5056358;28;45554;-69
2022/02/07 04:34:14;;;;;;;;;1.00;1.00;;;;;;;;5056654;28;45450;-70
2022/02/07 04:36:44;;;;;;;;;1.00;0.75;;;;;;;;5055974;28;45458;-70
2022/02/07 04:39:09;;;;;;;;;2.75;2.75;;;;;;;;5057322;28;46416;-70
2022/02/07 04:41:34;;;;;;;;;4.50;1.00;;;;;;;;5056224;28;45196;-70
2022/02/07 04:44:05;;;;;;;;;1.00;1.00;;;;;;;;5056622;28;45305;-70
2022/02/07 04:59:28;;;;;;;;;4.75;3.00;;;;;;;;5056126;28;46012;-70
2022/02/07 05:02:04;;;;;;;;;3.75;1.50;;;;;;;;5056297;28;45359;-70
2022/02/07 05:04:38;;;;;;;;;1.50;1.00;;;;;;;;5056532;28;45240;-71
2022/02/07 05:15:15;;;;;;;;;2.00;1.00;;;;;;;;5056659;28;45450;-70
2022/02/07 05:17:41;;;;;;;;;2.75;1.50;;;;;;;;5055446;28;45525;-69
2022/02/07 05:20:07;;;;;;;;;3.50;2.50;;;;;;;;5055683;28;46879;-70
2022/02/07 05:22:32;;;;;;;;;4.75;2.25;;;;;;;;5055381;28;45236;-70
2022/02/07 05:24:58;;;;;;;;;1.50;1.00;;;;;;;;5056024;28;45231;-70
2022/02/07 05:27:23;;;;;;;;;5.25;1.50;;;;;;;;5054775;28;45353;-70
2022/02/07 05:29:48;;;;;;;;;2.00;1.50;;;;;;;;5055185;28;46237;-71
2022/02/07 05:32:15;;;;;;;;;5.25;1.00;;;;;;;;5037577;28;45586;-70
2022/02/07 05:34:41;;;;;;;;;1.25;0.25;;;;;;;;5055611;28;45258;-70
2022/02/07 05:37:06;;;;;;;;;5.25;4.50;;;;;;;;5055075;28;45625;-70
2022/02/07 05:39:35;;;;;;;;;2.75;2.00;;;;;;;;5054504;28;46067;-70
2022/02/07 05:42:05;;;;;;;;;15.00;11.00;;;;;;;;5055080;28;45339;-71
2022/02/07 05:44:30;;;;;;;;;3.50;2.00;;;;;;;;5055224;27;45430;-71
2022/02/07 05:46:55;;;;;;;;;1.50;1.50;;;;;;;;5054719;28;45374;-70
2022/02/07 05:49:22;;;;;;;;;3.00;3.00;;;;;;;;5055191;28;47273;-70
2022/02/07 05:51:48;;;;;;;;;2.00;2.00;;;;;;;;5053524;28;45276;-71
2022/02/07 05:54:13;;;;;;;;;5.25;2.75;;;;;;;;5055243;28;45483;-71
2022/02/07 05:56:38;;;;;;;;;2.00;1.75;;;;;;;;5055373;28;45495;-70
2022/02/07 05:59:03;;;;;;;;;4.50;3.00;;;;;;;;5055185;28;46934;-71
2022/02/07 06:01:29;;;;;;;;;4.75;2.25;;;;;;;;5055402;28;45379;-70
2022/02/07 06:03:54;;;;;;;;;2.75;2.75;;;;;;;;5054693;28;45492;-70
2022/02/07 06:06:19;;;;;;;;;5.00;3.00;;;;;;;;5035678;28;45326;-70
2022/02/07 06:08:44;;;;;;;;;11.25;7.50;;;;;;;;5054765;28;46302;-70
2022/02/07 06:11:12;;;;;;;;;7.75;6.00;;;;;;;;5058275;28;45425;-70
2022/02/07 06:13:38;;;;;;;;;10.75;8.00;;;;;;;;5058393;28;45446;-70
2022/02/07 06:16:04;;;;;;;;;6.75;6.75;;;;;;;;5058021;28;45241;-71
2022/02/07 06:18:30;;;;;;;;;3.50;2.00;;;;;;;;5056759;28;45457;-71
2022/02/07 06:21:01;;;;;;;;;5.75;4.25;;;;;;;;5055447;28;45623;-71
2022/02/07 06:23:28;;;;;;;;;7.50;7.50;;;;;;;;5052352;28;45449;-70
2022/02/07 06:25:53;;;;;;;;;4.00;3.00;;;;;;;;5057879;28;45564;-72
2022/02/07 06:28:18;;;;;;;;;9.50;6.75;;;;;;;;5057686;28;45520;-71
2022/02/07 06:30:44;;;;;;;;;11.50;6.75;;;;;;;;5056645;28;45295;-70
2022/02/07 06:33:09;;;;;;;;;11.25;8.00;;;;;;;;5059070;27;45679;-74
2022/02/07 06:35:34;;;;;;;;;3.00;3.00;;;;;;;;5057743;28;45510;-74
2022/02/07 06:37:59;;;;;;;;;12.00;6.25;;;;;;;;5057261;28;46235;-75
2022/02/07 06:40:24;;;;;;;;;5.00;4.50;;;;;;;;5057670;28;45673;-75
2022/02/07 06:42:50;;;;;;;;;5.25;3.00;;;;;;;;5056913;28;45331;-74
2022/02/07 06:45:15;;;;;;;;;5.25;2.00;;;;;;;;5059114;28;45536;-75
2022/02/07 06:47:40;;;;;;;;;2.00;1.00;;;;;;;;5057101;28;45302;-75
2022/02/07 06:50:05;;;;;;;;;5.50;4.00;;;;;;;;5056530;28;45306;-75
2022/02/07 06:52:31;;;;;;;;;5.50;4.25;;;;;;;;5055777;28;45796;-74
2022/02/07 06:54:56;;;;;;;;;6.00;5.75;;;;;;;;5048368;28;45377;-76
2022/02/07 06:57:22;;;;;;;;;3.00;2.75;;;;;;;;5051810;28;45804;-74
2022/02/07 06:59:48;;;;;;;;;5.25;2.75;;;;;;;;5053343;28;45324;-74
2022/02/07 07:02:14;;;;;;;;;5.00;3.00;;;;;;;;5052985;28;45580;-74
2022/02/07 07:04:39;;;;;;;;;5.75;3.00;;;;;;;;5056952;28;45236;-75
2022/02/07 07:07:05;;;;;;;;;5.00;3.75;;;;;;;;5038690;28;46859;-74
2022/02/07 07:09:32;;;;;;;;;6.75;5.50;;;;;;;;5056056;28;45417;-74
2022/02/07 07:12:02;;;;;;;;;4.25;4.25;;;;;;;;5056976;28;45404;-76
2022/02/07 07:14:31;;;;;;;;;7.00;5.75;;;;;;;;5056810;28;45371;-75
2022/02/07 07:16:58;;;;;;;;;6.00;5.00;;;;;;;;5056348;28;47240;-76
2022/02/07 07:19:26;;;;;;;;;5.75;5.00;;;;;;;;5057517;28;45317;-77
2022/02/07 07:21:52;;;;;;;;;8.00;4.50;;;;;;;;5056718;28;45334;-75
2022/02/07 07:24:17;;;;;;;;;6.00;4.75;;;;;;;;5038527;28;45515;-75
2022/02/07 07:26:42;;;;;;;;;4.00;4.00;;;;;;;;5054083;27;45473;-76
2022/02/07 07:29:15;;;;;;;;;11.00;7.00;;;;;;;;5055978;28;45291;-76
2022/02/07 07:31:46;;;;;;;;;5.75;4.50;;;;;;;;5055428;28;45537;-78
2022/02/07 07:34:16;;;;;;;;;8.00;6.00;;;;;;;;5051219;28;45518;-77
2022/02/07 07:36:41;;;;;;;;;8.50;6.00;;;;;;;;5053250;28;45587;-76
2022/02/07 07:39:06;;;;;;;;;6.50;5.75;;;;;;;;5055799;28;45393;-75
2022/02/07 07:41:32;;;;;;;;;10.00;6.75;;;;;;;;5053605;28;45388;-76
2022/02/07 07:44:00;;;;;;;;;6.00;5.25;;;;;;;;5043674;28;45486;-77
2022/02/07 07:46:29;;;;;;;;;10.00;5.00;;;;;;;;5046610;28;46063;-77
2022/02/07 07:49:02;;;;;;;;;6.75;6.50;;;;;;;;5054965;28;45189;-77
2022/02/07 07:54:18;;;;;;;;;3.75;3.75;;;;;;;;5056058;28;45387;-78
2022/02/07 08:02:15;;;;;;;;;12.25;8.75;;;;;;;;5055256;28;45528;-76
2022/02/07 08:04:42;;;;;;;;;9.25;8.00;;;;;;;;5056255;28;45566;-76
2022/02/07 08:07:16;;;;;;;;;17.75;14.50;;;;;;;;5055724;27;46534;-76
2022/02/07 08:12:14;;;;;;;;;8.25;5.25;;;;;;;;5050495;28;45297;-75
2022/02/07 08:14:40;;;;;;;;;7.75;6.50;;;;;;;;5055347;28;45452;-74
2022/02/07 08:17:06;;;;;;;;;6.25;4.00;;;;;;;;5056402;28;46877;-76
2022/02/07 08:19:33;;;;;;;;;12.00;5.00;;;;;;;;5054656;28;45283;-77
2022/02/07 08:21:58;;;;;;;;;6.00;6.00;;;;;;;;5055248;28;45384;-76
2022/02/07 08:24:23;;;;;;;;;6.00;5.00;;;;;;;;5054702;28;45445;-75
2022/02/07 08:26:49;;;;;;;;;7.00;6.00;;;;;;;;5054640;28;46332;-75
2022/02/07 08:29:15;;;;;;;;;6.50;5.00;;;;;;;;5054075;28;45628;-77
2022/02/07 08:31:40;;;;;;;;;8.50;7.00;;;;;;;;5055761;27;45300;-77
2022/02/07 08:34:05;;;;;;;;;5.00;3.25;;;;;;;;5061148;28;45201;-78
2022/02/07 08:36:30;;;;;;;;;12.25;10.50;;;;;;;;5050059;28;46481;-77
2022/02/07 08:38:56;;;;;;;;;9.50;7.00;;;;;;;;5053474;28;45212;-76
2022/02/07 08:41:21;;;;;;;;;5.75;4.25;;;;;;;;5054925;28;45434;-77
2022/02/07 08:43:46;;;;;;;;;6.25;5.25;;;;;;;;5053299;28;45494;-73
2022/02/07 08:46:12;;;;;;;;;10.00;7.50;;;;;;;;5054958;28;47377;-78
2022/02/07 08:48:37;;;;;;;;;8.00;4.75;;;;;;;;5054352;28;45444;-76
2022/02/07 08:51:04;;;;;;;;;13.50;6.75;;;;;;;;5057183;28;45679;-74
2022/02/07 08:53:35;;;;;;;;;9.00;6.00;;;;;;;;5055261;28;45369;-77
2022/02/07 08:56:02;;;;;;;;;5.50;4.50;;;;;;;;5054056;28;47068;-76
2022/02/07 08:58:29;;;;;;;;;10.25;8.00;;;;;;;;5054882;28;45348;-77
2022/02/07 09:01:22;;;;;;;;;8.75;5.00;;;;;;;;5054180;28;45427;-76
2022/02/07 09:04:30;;;;;;;;;5.00;4.50;;;;;;;;5054335;28;45493;-75
2022/02/07 09:07:04;;;;;;;;;14.25;7.25;;;;;;;;5050601;28;45463;-77
2022/02/07 09:09:29;;;;;;;;;6.50;4.75;;;;;;;;5052435;28;45467;-76
2022/02/07 09:11:55;;;;;;;;;9.00;5.00;;;;;;;;5062908;28;45397;-78
2022/02/07 09:14:22;;;;;;;;;9.25;7.50;;;;;;;;5057425;28;45452;-77
2022/02/07 09:16:48;;;;;;;;;3.50;3.50;;;;;;;;5051222;28;46565;-77
2022/02/07 09:19:15;;;;;;;;;7.00;7.00;;;;;;;;5063420;28;45411;-76
2022/02/07 09:21:41;;;;;;;;;6.25;6.00;;;;;;;;5052706;28;45541;-77
2022/02/07 09:24:06;;;;;;;;;6.25;4.25;;;;;;;;5051457;28;45383;-76
2022/02/07 09:26:32;;;;;;;;;7.25;6.25;;;;;;;;5055402;28;47152;-75
2022/02/07 09:28:57;;;;;;;;;16.50;11.00;;;;;;;;5052733;28;45334;-76
2022/02/07 09:31:22;;;;;;;;;7.25;6.00;;;;;;;;5037190;28;45696;-77
2022/02/07 09:33:48;;;;;;;;;12.25;9.25;;;;;;;;5052667;28;45392;-76
2022/02/07 09:36:15;;;;;;;;;10.25;6.75;;;;;;;;5054107;28;45406;-75
2022/02/07 09:38:41;;;;;;;;;5.75;5.75;;;;;;;;5053090;28;45477;-77
2022/02/07 09:41:07;;;;;;;;;10.75;8.25;;;;;;;;5053697;28;45360;-77
2022/02/07 09:43:35;;;;;;;;;10.25;8.50;;;;;;;;5053572;27;45489;-77
2022/02/07 09:46:08;;;;;;;;;6.75;5.75;;;;;;;;5049059;28;46284;-76
2022/02/07 09:48:35;;;;;;;;;8.25;8.00;;;;;;;;5057379;28;45354;-75
2022/02/07 09:51:00;;;;;;;;;11.00;9.25;;;;;;;;5061906;27;45571;-76
2022/02/07 09:53:27;;;;;;;;;7.75;7.75;;;;;;;;5057187;28;45203;-77
2022/02/07 09:55:53;;;;;;;;;11.50;7.75;;;;;;;;5057645;28;45592;-78
2022/02/07 09:58:18;;;;;;;;;10.00;7.75;;;;;;;;5057466;28;45466;-76
2022/02/07 10:00:43;;;;;;;;;10.25;7.00;;;;;;;;5039814;28;45140;-76
2022/02/07 10:03:25;;;;;;;;;12.00;10.00;;;;;;;;5060326;27;45547;-77
2022/02/07 10:05:57;;;;;;;;;9.00;5.75;;;;;;;;5058548;28;45250;-79
2022/02/07 10:11:29;;;;;;;;;7.00;7.00;;;;;;;;5072258;28;45159;-77
2022/02/07 10:19:07;;;;;;;;;7.00;5.75;;;;;;;;5066677;28;44190;-77
2022/02/07 10:36:46;;;;;;;;;8.50;5.50;;;;;;;;5056141;28;45395;-74
2022/02/07 10:46:00;;;;;;;;;6.75;4.00;;;;;;;;5056479;28;45535;-79
2022/02/07 10:48:43;;;;;;;;;6.50;3.50;;;;;;;;5053906;28;46519;-80
2022/02/07 10:51:08;;;;;;;;;4.00;2.25;;;;;;;;5056257;28;45503;-80
2022/02/07 10:53:45;;;;;;;;;3.50;3.00;;;;;;;;5057513;28;45435;-81
2022/02/07 10:56:11;;;;;;;;;12.00;8.25;;;;;;;;5056963;28;45466;-83
2022/02/07 10:58:36;;;;;;;;;8.00;3.00;;;;;;;;5062890;27;46020;-83
2022/02/07 11:01:17;;;;;;;;;3.00;2.25;;;;;;;;5058373;28;45470;-79
2022/02/07 11:03:50;;;;;;;;;6.50;5.50;;;;;;;;5052663;28;45347;-80
2022/02/07 11:06:21;;;;;;;;;3.25;3.25;;;;;;;;5056986;28;45524;-80
2022/02/07 11:19:08;;;;;;;;;2.75;1.75;;;;;;;;5056167;28;45490;-77
2022/02/07 11:24:19;;;;;;;;;2.75;2.75;;;;;;;;5056767;28;45384;-77
2022/02/07 11:26:49;;;;;;;;;4.25;2.00;;;;;;;;5056288;28;45463;-76
2022/02/07 11:29:34;;;;;;;;;2.25;2.25;;;;;;;;5056549;28;46210;-77
2022/02/07 11:31:59;;;;;;;;;2.75;2.75;;;;;;;;5056572;28;45348;-78
2022/02/07 11:34:39;;;;;;;;;3.75;3.75;;;;;;;;5056780;28;45395;-77
2022/02/07 11:37:18;;;;;;;;;1.00;1.00;;;;;;;;5056215;28;45526;-77
2022/02/07 11:39:47;;;;;;;;;2.50;2.50;;;;;;;;5051325;28;46299;-78
2022/02/07 11:42:13;;;;;;;;;5.00;2.00;;;;;;;;5055774;28;45499;-78
2022/02/07 11:44:38;;;;;;;;;1.00;0.75;;;;;;;;5056051;28;45506;-78
2022/02/07 11:47:13;;;;;;;;;5.50;2.75;;;;;;;;5056119;28;45296;-77
2022/02/07 11:49:39;;;;;;;;;3.00;1.00;;;;;;;;5038203;28;46357;-77
2022/02/07 11:52:23;;;;;;;;;3.75;1.75;;;;;;;;5056400;28;45434;-76
2022/02/07 11:54:53;;;;;;;;;1.25;1.00;;;;;;;;5051929;28;45372;-77
2022/02/07 11:57:21;;;;;;;;;8.75;4.25;;;;;;;;5057226;28;45412;-77
2022/02/07 11:59:56;;;;;;;;;3.25;3.00;;;;;;;;5056518;28;46668;-77
2022/02/07 12:02:33;;;;;;;;;4.25;3.00;;;;;;;;5055880;28;45656;-78
2022/02/07 12:04:58;;;;;;;;;2.75;1.25;;;;;;;;5055936;28;45395;-77
2022/02/07 12:07:24;;;;;;;;;1.00;1.00;;;;;;;;5055316;28;45470;-77
2022/02/07 12:10:26;;;;;;;;;3.25;2.25;;;;;;;;5054265;28;46966;-77
2022/02/07 12:12:49;;;;;;;;;1.25;1.25;;;;;;;;5050448;28;45361;-77
2022/02/07 12:15:26;;;;;;;;;2.25;2.00;;;;;;;;5055176;28;45292;-78
2022/02/07 12:17:53;;;;;;;;;3.75;2.75;;;;;;;;5055647;28;45298;-77
2022/02/07 12:20:22;;;;;;;;;3.25;3.00;;;;;;;;5057092;28;45454;-77
2022/02/07 12:22:47;;;;;;;;;2.00;2.00;;;;;;;;5056387;28;45348;-77
2022/02/07 12:25:20;;;;;;;;;8.50;5.75;;;;;;;;5056484;28;45302;-78
2022/02/07 12:27:46;;;;;;;;;4.00;4.00;;;;;;;;5052164;28;45219;-76
2022/02/07 12:32:37;;;;;;;;;4.50;2.25;;;;;;;;5058190;28;45382;-76
2022/02/07 12:35:06;;;;;;;;;4.25;3.25;;;;;;;;5066003;28;45434;-77
2022/02/07 12:37:37;;;;;;;;;8.75;4.75;;;;;;;;5063634;28;45320;-77
2022/02/07 12:40:04;;;;;;;;;5.25;3.00;;;;;;;;5061565;28;46440;-79
2022/02/07 12:42:30;;;;;;;;;3.75;3.75;;;;;;;;5061400;28;45572;-77
2022/02/07 12:44:59;;;;;;;;;4.50;2.00;;;;;;;;5063127;28;45427;-77
2022/02/07 12:47:24;;;;;;;;;3.75;3.75;;;;;;;;5047264;28;45338;-76
2022/02/07 12:49:51;;;;;;;;;4.25;3.00;;;;;;;;5067557;28;46502;-77
2022/02/07 12:52:16;;;;;;;;;5.75;4.50;;;;;;;;5065352;28;45199;-77
2022/02/07 12:54:41;;;;;;;;;4.00;4.00;;;;;;;;5069765;28;45611;-77
2022/02/07 12:57:07;;;;;;;;;3.00;3.00;;;;;;;;5071164;28;45553;-75
2022/02/07 12:59:32;;;;;;;;;5.67;4.33;;;;;;;;5072949;28;46056;-76
2022/02/07 13:01:57;;;;;;;;;3.33;3.33;;;;;;;;5074291;28;45329;-77
2022/02/07 13:04:23;;;;;;;;;4.67;2.00;;;;;;;;5076465;28;45298;-77
2022/02/07 13:06:52;;;;;;;;;2.00;2.00;;;;;;;;5070611;28;45520;-76
2022/02/07 13:09:27;;;;;;;;;3.33;2.67;;;;;;;;5073702;28;45358;-78
2022/02/07 13:12:13;;;;;;;;;2.67;2.33;;;;;;;;5072387;28;44768;-76
2022/02/07 13:14:41;;;;;;;;;1.00;1.00;;;;;;;;5057444;27;45462;-77
2022/02/07 13:17:07;;;;;;;;;5.25;4.00;;;;;;;;5054887;28;45256;-77
2022/02/07 13:19:36;;;;;;;;;3.00;2.33;;;;;;;;5056123;28;46270;-77
2022/02/07 13:22:02;;;;;;;;;1.00;1.00;;;;;;;;5053690;28;45449;-77
2022/02/07 13:24:31;;;;;;;;;3.00;2.00;;;;;;;;5055908;27;45458;-77
2022/02/07 13:26:57;;;;;;;;;2.00;2.00;;;;;;;;5054437;28;45536;-78
2022/02/07 13:29:27;;;;;;;;;2.00;1.00;;;;;;;;5052294;28;45447;-77
2022/02/07 13:32:03;;;;;;;;;4.00;2.00;;;;;;;;5054032;28;45341;-77
2022/02/07 13:34:30;;;;;;;;;4.00;3.33;;;;;;;;5054936;28;45598;-78
2022/02/07 13:37:05;;;;;;;;;5.67;2.67;;;;;;;;5053376;28;45456;-77
2022/02/07 13:39:32;;;;;;;;;3.67;3.33;;;;;;;;5047428;28;47018;-78
2022/02/07 13:42:05;;;;;;;;;2.33;1.67;;;;;;;;5054522;28;45501;-76
2022/02/07 13:44:30;;;;;;;;;3.00;3.00;;;;;;;;5054569;28;45481;-77
2022/02/07 13:47:04;;;;;;;;;5.00;3.67;;;;;;;;5054524;28;45383;-77
2022/02/07 13:49:31;;;;;;;;;4.00;1.00;;;;;;;;5054806;28;45257;-77
2022/02/07 13:51:56;;;;;;;;;2.33;2.00;;;;;;;;5053798;28;47612;-77
2022/02/07 13:54:28;;;;;;;;;4.67;1.67;;;;;;;;5056657;28;45228;-78
2022/02/07 13:56:56;;;;;;;;;3.00;2.00;;;;;;;;5052374;27;45526;-76
2022/02/07 13:59:22;;;;;;;;;0.33;0.33;;;;;;;;5054252;28;46311;-75
2022/02/07 14:01:49;;;;;;;;;3.00;2.00;;;;;;;;5054118;28;45491;-78
2022/02/07 14:04:25;;;;;;;;;0.67;0.67;;;;;;;;5054552;28;45275;-77
2022/02/07 14:07:04;;;;;;;;;2.25;1.25;;;;;;;;5049884;28;45355;-76
2022/02/07 14:09:29;;;;;;;;;3.75;2.75;;;;;;;;5053022;28;47139;-76
2022/02/07 14:11:58;;;;;;;;;2.50;2.00;;;;;;;;5053389;28;45394;-77
2022/02/07 14:14:25;;;;;;;;;4.00;3.00;;;;;;;;5053927;28;46905;-77
2022/02/07 14:16:50;;;;;;;;;5.75;3.00;;;;;;;;5054304;28;45437;-76
2022/02/07 14:19:17;;;;;;;;;9.50;7.00;;;;;;;;5054164;28;46292;-77
2022/02/07 14:21:43;;;;;;;;;3.00;3.00;;;;;;;;5034286;28;45320;-77
2022/02/07 14:24:08;;;;;;;;;2.33;2.33;;;;;;;;5054161;28;45489;-76
2022/02/07 14:26:37;;;;;;;;;5.67;3.00;;;;;;;;5053995;28;45461;-77
2022/02/07 14:29:02;;;;;;;;;3.00;1.00;;;;;;;;5053692;28;46111;-76
2022/02/07 14:31:29;;;;;;;;;0.67;0.67;;;;;;;;5056422;28;45597;-75
2022/02/07 14:33:54;;;;;;;;;2.67;1.33;;;;;;;;5056697;28;45220;-77
2022/02/07 14:36:21;;;;;;;;;1.33;1.33;;;;;;;;5058931;28;45482;-77
2022/02/07 14:38:47;;;;;;;;;0.00;0.00;;;;;;;;5056795;28;47069;-77
2022/02/07 14:41:12;;;;;;;;;1.00;1.00;;;;;;;;5057147;28;45474;-75
2022/02/07 14:43:38;;;;;;;;;3.00;1.50;;;;;;;;5039121;28;45309;-77
2022/02/07 14:48:30;;;;;;;;;1.25;1.25;;;;;;;;5056055;28;46260;-77
2022/02/07 14:50:55;;;;;;;;;1.00;1.00;;;;;;;;5057260;28;45262;-76
2022/02/07 14:53:22;;;;;;;;;4.25;1.75;;;;;;;;5057386;28;45453;-77
2022/02/07 14:55:47;;;;;;;;;4.25;2.75;;;;;;;;5057404;28;45506;-77
2022/02/07 14:58:12;;;;;;;;;6.50;5.50;;;;;;;;5056713;28;46845;-78
2022/02/07 15:00:38;;;;;;;;;1.75;1.75;;;;;;;;5055260;28;45380;-76
2022/02/07 15:03:05;;;;;;;;;2.00;1.25;;;;;;;;5056993;27;45352;-75
2022/02/07 15:05:31;;;;;;;;;2.00;2.00;;;;;;;;5058435;28;45531;-77
2022/02/07 15:07:57;;;;;;;;;1.75;1.75;;;;;;;;5056398;28;46036;-76
2022/02/07 15:10:22;;;;;;;;;4.50;3.50;;;;;;;;5056466;28;45363;-77
2022/02/07 15:12:49;;;;;;;;;6.50;4.25;;;;;;;;5055690;28;45352;-78
2022/02/07 15:15:14;;;;;;;;;3.25;2.50;;;;;;;;5056344;28;45589;-77
2022/02/07 15:17:40;;;;;;;;;5.00;4.25;;;;;;;;5056020;28;46280;-78
2022/02/07 15:20:06;;;;;;;;;4.50;3.25;;;;;;;;5056639;27;45490;-78
2022/02/07 15:22:31;;;;;;;;;6.50;5.00;;;;;;;;5056628;28;45361;-77
2022/02/07 15:24:57;;;;;;;;;3.50;3.50;;;;;;;;5055961;28;45549;-78
2022/02/07 15:27:25;;;;;;;;;4.00;3.00;;;;;;;;5037848;28;47008;-77
2022/02/07 15:29:50;;;;;;;;;5.00;4.00;;;;;;;;5055585;28;45474;-76
2022/02/07 15:32:31;;;;;;;;;3.25;2.00;;;;;;;;5038769;28;45440;-76
2022/02/07 15:34:58;;;;;;;;;3.00;2.75;;;;;;;;5056195;28;45388;-78
2022/02/07 15:37:24;;;;;;;;;7.00;4.00;;;;;;;;5056274;28;45466;-77
2022/02/07 15:39:49;;;;;;;;;3.50;2.50;;;;;;;;5055136;28;45345;-77
2022/02/07 15:42:15;;;;;;;;;3.75;2.25;;;;;;;;5054876;28;45495;-75
2022/02/07 15:44:40;;;;;;;;;5.75;5.25;;;;;;;;5056522;28;45399;-75
2022/02/07 15:47:06;;;;;;;;;4.75;3.25;;;;;;;;5038001;28;47289;-77
2022/02/07 15:49:31;;;;;;;;;2.75;2.75;;;;;;;;5056556;28;45420;-77
2022/02/07 15:51:56;;;;;;;;;4.00;3.00;;;;;;;;5056017;28;45225;-77
2022/02/07 15:54:21;;;;;;;;;7.50;5.50;;;;;;;;5056384;28;45427;-78
2022/02/07 15:56:46;;;;;;;;;8.50;5.00;;;;;;;;5056462;28;46651;-77
2022/02/07 15:59:12;;;;;;;;;2.75;2.75;;;;;;;;5056413;28;45472;-76
2022/02/07 16:01:37;;;;;;;;;5.25;4.25;;;;;;;;5056349;28;45409;-79
2022/02/07 16:04:02;;;;;;;;;3.75;2.75;;;;;;;;5057163;28;45325;-78
2022/02/07 16:06:27;;;;;;;;;6.00;4.00;;;;;;;;5057129;28;46011;-79
2022/02/07 16:08:53;;;;;;;;;8.25;6.00;;;;;;;;5055838;27;45279;-80
2022/02/07 16:11:18;;;;;;;;;4.00;4.00;;;;;;;;5057787;28;45253;-79
2022/02/07 16:13:52;;;;;;;;;3.00;3.00;;;;;;;;5056081;27;45379;-80
2022/02/07 16:16:17;;;;;;;;;3.25;2.00;;;;;;;;5040186;28;46919;-80
2022/02/07 16:18:44;;;;;;;;;10.00;7.00;;;;;;;;5055075;28;45383;-79
2022/02/07 16:21:09;;;;;;;;;7.50;5.50;;;;;;;;5055551;28;45425;-77
2022/02/07 16:23:34;;;;;;;;;9.00;5.75;;;;;;;;5056986;28;45367;-77
2022/02/07 16:26:00;;;;;;;;;6.25;5.00;;;;;;;;5047465;28;45569;-78
2022/02/07 16:28:25;;;;;;;;;3.25;2.00;;;;;;;;5052561;28;45458;-76
2022/02/07 16:30:51;;;;;;;;;9.50;4.50;;;;;;;;5054128;28;45277;-75
2022/02/07 16:33:16;;;;;;;;;2.75;2.75;;;;;;;;5055218;28;45288;-77
2022/02/07 16:35:42;;;;;;;;;5.00;4.00;;;;;;;;5055911;27;45340;-77
2022/02/07 16:38:08;;;;;;;;;2.50;2.50;;;;;;;;5054784;28;45477;-78
2022/02/07 16:40:37;;;;;;;;;4.00;4.00;;;;;;;;5036661;28;45461;-78
2022/02/07 16:43:03;;;;;;;;;2.25;1.25;;;;;;;;5037989;28;45290;-80
2022/02/07 16:45:49;;;;;;;;;4.25;2.50;;;;;;;;5035497;28;47210;-78
2022/02/07 16:48:14;;;;;;;;;4.50;2.75;;;;;;;;5055029;28;45229;-80
2022/02/07 16:50:40;;;;;;;;;3.00;3.00;;;;;;;;5055240;28;45796;-79
2022/02/07 16:53:05;;;;;;;;;6.75;4.75;;;;;;;;5056855;28;45425;-80
2022/02/07 16:55:30;;;;;;;;;4.25;4.25;;;;;;;;5055439;28;46039;-81
2022/02/07 16:57:56;;;;;;;;;8.50;6.00;;;;;;;;5054609;28;45213;-81
2022/02/07 17:00:22;;;;;;;;;10.00;7.00;;;;;;;;5054289;28;45260;-79
2022/02/07 17:02:48;;;;;;;;;5.00;4.25;;;;;;;;5054942;27;45633;-79
2022/02/07 17:05:16;;;;;;;;;4.75;4.75;;;;;;;;5054769;28;47313;-78
2022/02/07 17:07:45;;;;;;;;;7.75;4.75;;;;;;;;5056520;28;45362;-76
2022/02/07 17:10:11;;;;;;;;;8.25;5.25;;;;;;;;5055491;28;45394;-78
2022/02/07 17:12:36;;;;;;;;;3.75;2.50;;;;;;;;5054441;28;45318;-78
2022/02/07 17:15:01;;;;;;;;;6.25;5.25;;;;;;;;5054272;28;45773;-78